Time;durP1;ratioP1;P1;durP2;ratioP2;P2;SDS_P1;SDS_P2;PMS_P1;PMS_P2;Temp;Humidity;BMP_temperature;BMP_pressure;BME280_temperature;BME280_humidity;BME280_pressure;Samples;Min_cycle;Max_cycle;Signal;HPM_P1;HPM_P2
2022/09/23 00:00:28;;;;;;;16.77;12.43;;;8.80;99.90;;;;;;4995944;28;20368;-76
2022/09/23 00:02:53;;;;;;;16.15;12.43;;;8.80;99.90;;;;;;4995900;28;20031;-76
2022/09/23 00:05:19;;;;;;;13.10;11.45;;;8.90;99.90;;;;;;5003331;28;20021;-76
2022/09/23 00:07:45;;;;;;;14.43;11.90;;;8.80;99.90;;;;;;5015496;28;20026;-76
2022/09/23 00:10:10;;;;;;;15.10;12.65;;;8.70;99.90;;;;;;5015551;28;20053;-76
2022/09/23 00:12:36;;;;;;;13.82;12.27;;;8.80;99.90;;;;;;5015490;28;20276;-76
2022/09/23 00:15:03;;;;;;;14.63;11.38;;;8.70;99.90;;;;;;5015230;28;20018;-76
2022/09/23 00:17:30;;;;;;;14.18;11.45;;;8.80;99.90;;;;;;5015295;28;20379;-76
2022/09/23 00:19:56;;;;;;;15.00;11.57;;;8.80;99.90;;;;;;5015241;28;20021;-76
2022/09/23 00:22:21;;;;;;;12.25;10.93;;;8.80;99.90;;;;;;5015257;28;20105;-76
2022/09/23 00:24:48;;;;;;;14.32;11.77;;;8.80;99.90;;;;;;5015111;28;20018;-75
2022/09/23 00:27:13;;;;;;;15.63;11.80;;;8.80;99.90;;;;;;5014976;28;20528;-76
2022/09/23 00:29:39;;;;;;;14.65;11.82;;;8.80;99.90;;;;;;5015027;28;20097;-76
2022/09/23 00:32:04;;;;;;;14.00;11.82;;;8.80;99.90;;;;;;5027337;22;20120;-79
2022/09/23 00:34:30;;;;;;;17.05;12.27;;;8.80;99.90;;;;;;4998314;28;20034;-76
2022/09/23 00:36:56;;;;;;;13.30;11.38;;;8.80;99.90;;;;;;5003468;28;20033;-76
2022/09/23 00:39:25;;;;;;;14.98;11.90;;;8.80;99.90;;;;;;5013785;28;20026;-76
2022/09/23 00:41:51;;;;;;;15.10;12.75;;;8.80;99.90;;;;;;4999216;28;20385;-76
2022/09/23 00:44:39;;;;;;;23.20;14.02;;;8.80;99.90;;;;;;4994238;28;20409;-76
2022/09/23 00:47:29;;;;;;;16.40;12.98;;;8.90;99.90;;;;;;4994134;28;20453;-76
2022/09/23 00:50:05;;;;;;;17.05;12.10;;;9.00;99.90;;;;;;4993408;28;20122;-76
2022/09/23 00:52:32;;;;;;;18.55;13.32;;;9.00;99.90;;;;;;4993998;28;20030;-76
2022/09/23 00:55:01;;;;;;;16.35;14.65;;;9.00;99.90;;;;;;5011771;28;20024;-76
2022/09/23 00:57:28;;;;;;;19.43;14.17;;;9.10;99.90;;;;;;5013481;28;20591;-76
2022/09/23 00:59:54;;;;;;;17.17;13.52;;;9.10;99.90;;;;;;5013589;28;20123;-76
2022/09/23 01:02:27;;;;;;;18.83;13.27;;;9.10;99.90;;;;;;5013476;28;20022;-76
2022/09/23 01:04:53;;;;;;;15.85;13.40;;;9.20;99.90;;;;;;5013672;28;20065;-76
2022/09/23 01:07:19;;;;;;;17.05;14.52;;;9.10;99.90;;;;;;5013411;28;20029;-76
2022/09/23 01:09:46;;;;;;;16.98;13.57;;;9.10;99.90;;;;;;5013472;28;20105;-77
2022/09/23 01:12:49;;;;;;;15.73;12.93;;;9.10;99.90;;;;;;5013309;28;20033;-77
2022/09/23 01:15:35;;;;;;;16.98;13.88;;;9.00;99.90;;;;;;4998768;28;20509;-76
2022/09/23 01:18:38;;;;;;;16.50;13.45;;;9.00;99.90;;;;;;5013180;28;20117;-76
2022/09/23 01:21:47;;;;;;;15.45;11.98;;;9.10;99.90;;;;;;5012880;28;20353;-76
2022/09/23 01:24:44;;;;;;;17.70;13.52;;;8.90;99.90;;;;;;5002645;28;20088;-76
2022/09/23 01:27:21;;;;;;;19.00;13.63;;;8.80;99.90;;;;;;4994763;28;20105;-77
2022/09/23 01:30:09;;;;;;;17.98;13.73;;;8.70;99.90;;;;;;4993558;28;20029;-77
2022/09/23 01:32:37;;;;;;;18.25;13.25;;;8.60;99.90;;;;;;4992833;28;20092;-76
2022/09/23 01:35:15;;;;;;;17.65;13.45;;;8.50;99.90;;;;;;4991806;28;20362;-77
2022/09/23 01:37:44;;;;;;;17.02;13.75;;;8.40;99.90;;;;;;5006980;28;20014;-76
2022/09/23 01:40:21;;;;;;;16.50;13.48;;;8.40;99.90;;;;;;5012800;28;20026;-77
2022/09/23 01:43:10;;;;;;;18.45;14.38;;;8.30;99.90;;;;;;5012699;28;20374;-77
2022/09/23 01:45:47;;;;;;;16.73;12.77;;;8.20;99.90;;;;;;4993157;28;20670;-77
2022/09/23 01:48:45;;;;;;;17.77;13.70;;;8.20;99.90;;;;;;5009474;28;20030;-77
2022/09/23 01:51:42;;;;;;;18.20;14.95;;;8.20;99.90;;;;;;4997028;28;20119;-76
2022/09/23 01:54:18;;;;;;;16.48;13.77;;;8.10;99.90;;;;;;5011505;28;20048;-76
2022/09/23 01:56:55;;;;;;;18.00;14.32;;;7.90;99.90;;;;;;5012448;28;20030;-77
2022/09/23 01:59:34;;;;;;;17.58;14.27;;;7.90;99.90;;;;;;4992946;28;20034;-77
2022/09/23 02:02:10;;;;;;;18.92;14.18;;;7.90;99.90;;;;;;4992946;28;20022;-76
2022/09/23 02:05:07;;;;;;;19.90;13.88;;;8.00;99.90;;;;;;4992809;28;20121;-76
2022/09/23 02:07:38;;;;;;;20.42;15.40;;;7.90;99.90;;;;;;4998402;28;20045;-76
2022/09/23 02:10:18;;;;;;;19.67;15.52;;;8.00;99.90;;;;;;5012518;28;20045;-76
2022/09/23 02:12:48;;;;;;;18.67;14.50;;;7.90;99.90;;;;;;5012383;28;20030;-76
2022/09/23 02:15:18;;;;;;;21.70;16.02;;;7.70;99.90;;;;;;5012703;28;20026;-76
2022/09/23 02:17:52;;;;;;;19.13;15.10;;;7.80;99.90;;;;;;5012271;28;20022;-77
2022/09/23 02:20:29;;;;;;;21.98;15.82;;;7.70;99.90;;;;;;5012554;28;20029;-76
2022/09/23 02:23:06;;;;;;;18.30;14.80;;;7.80;99.90;;;;;;5012453;28;20034;-76
2022/09/23 02:25:44;;;;;;;24.55;16.55;;;7.70;99.90;;;;;;5012587;28;20026;-76
2022/09/23 02:28:22;;;;;;;20.00;15.10;;;7.70;99.90;;;;;;5012051;28;20117;-76
2022/09/23 02:31:11;;;;;;;20.77;16.08;;;7.60;99.90;;;;;;5012743;28;20033;-76
2022/09/23 02:33:53;;;;;;;25.40;16.17;;;7.70;99.90;;;;;;5011944;28;20046;-76
2022/09/23 02:36:30;;;;;;;26.55;16.42;;;7.70;99.90;;;;;;5012423;28;20065;-76
2022/09/23 02:38:59;;;;;;;23.95;15.95;;;7.70;99.90;;;;;;4998713;28;20030;-76
2022/09/23 02:41:45;;;;;;;22.50;15.63;;;7.60;99.90;;;;;;4992561;28;20098;-76
2022/09/23 02:44:15;;;;;;;26.38;16.55;;;7.60;99.90;;;;;;4992695;28;20093;-76
2022/09/23 02:46:44;;;;;;;21.38;15.57;;;7.50;99.90;;;;;;4992660;28;20077;-77
2022/09/23 02:49:22;;;;;;;21.63;15.32;;;7.50;99.90;;;;;;4992812;28;20117;-76
2022/09/23 02:51:48;;;;;;;24.00;16.40;;;7.50;99.90;;;;;;4992747;28;20027;-76
2022/09/23 02:54:18;;;;;;;22.63;15.57;;;7.40;99.90;;;;;;4991303;28;20021;-76
2022/09/23 02:56:44;;;;;;;22.42;15.80;;;7.40;99.90;;;;;;4992747;28;20724;-76
2022/09/23 02:59:12;;;;;;;21.90;15.40;;;7.40;99.90;;;;;;4992502;28;20023;-76
2022/09/23 03:02:06;;;;;;;24.17;16.52;;;7.30;99.90;;;;;;4992655;28;20377;-76
2022/09/23 03:04:37;;;;;;;26.50;17.00;;;7.30;99.90;;;;;;4992659;28;20085;-76
2022/09/23 03:07:19;;;;;;;22.05;14.88;;;7.30;99.90;;;;;;4995968;28;20109;-76
2022/09/23 03:10:09;;;;;;;24.23;15.30;;;7.20;99.90;;;;;;4996081;28;20034;-76
2022/09/23 03:13:03;;;;;;;27.00;16.02;;;7.20;99.90;;;;;;4996042;28;20026;-76
2022/09/23 03:15:50;;;;;;;21.45;14.75;;;7.20;99.90;;;;;;4968915;28;20027;-76
2022/09/23 03:19:06;;;;;;;25.23;16.85;;;7.10;99.90;;;;;;4996239;28;20018;-76
2022/09/23 03:21:45;;;;;;;21.05;14.60;;;7.10;99.90;;;;;;4943650;29;20031;-76
2022/09/23 03:24:13;;;;;;;23.10;15.90;;;7.10;99.90;;;;;;4995239;28;20053;-76
2022/09/23 03:26:43;;;;;;;23.60;16.15;;;7.20;99.90;;;;;;4996087;28;20037;-76
2022/09/23 03:29:10;;;;;;;;;;;7.20;99.90;;;;;;5009352;28;20027;-76
2022/09/23 03:31:41;;;;;;;24.65;15.43;;;7.20;99.90;;;;;;4995600;28;20349;-76
2022/09/23 03:34:18;;;;;;;27.17;16.10;;;7.20;99.90;;;;;;4995648;28;20027;-77
2022/09/23 03:37:00;;;;;;;23.90;16.02;;;7.20;99.90;;;;;;4995503;28;20015;-76
2022/09/23 03:39:34;;;;;;;29.67;16.65;;;7.20;99.90;;;;;;4995439;28;20366;-77
2022/09/23 03:42:06;;;;;;;25.08;16.65;;;7.20;99.90;;;;;;4998190;28;21808;-76
2022/09/23 03:44:38;;;;;;;26.25;17.13;;;7.30;99.90;;;;;;5015013;28;20049;-76
2022/09/23 03:47:04;;;;;;;23.55;16.17;;;7.30;99.90;;;;;;4995636;28;20072;-76
2022/09/23 03:49:34;;;;;;;20.85;15.23;;;7.20;99.90;;;;;;4995185;28;20027;-76
2022/09/23 03:52:02;;;;;;;24.77;15.63;;;7.20;99.90;;;;;;4995946;28;20022;-76
2022/09/23 03:54:28;;;;;;;23.63;15.32;;;7.20;99.90;;;;;;4995485;28;20076;-76
2022/09/23 03:56:57;;;;;;;24.45;15.85;;;7.20;99.90;;;;;;4995364;28;20030;-76
2022/09/23 03:59:23;;;;;;;26.48;17.60;;;7.30;99.90;;;;;;4995084;28;20106;-76
2022/09/23 04:01:49;;;;;;;25.52;17.23;;;7.30;99.90;;;;;;4994960;28;20031;-76
2022/09/23 04:04:15;;;;;;;26.70;18.02;;;7.40;99.90;;;;;;4995079;28;20032;-76
2022/09/23 04:06:40;;;;;;;27.70;17.23;;;7.50;99.90;;;;;;4995031;28;20363;-77
2022/09/23 04:09:07;;;;;;;29.95;18.67;;;7.50;99.90;;;;;;4994870;28;20106;-76
2022/09/23 04:11:32;;;;;;;28.13;18.48;;;7.70;99.90;;;;;;4994835;28;20042;-77
2022/09/23 04:13:58;;;;;;;30.23;18.98;;;7.70;99.90;;;;;;4994748;28;20061;-76
2022/09/23 04:16:24;;;;;;;28.67;19.20;;;7.70;99.90;;;;;;4994403;28;20033;-76
2022/09/23 04:18:50;;;;;;;27.05;16.98;;;7.70;99.90;;;;;;4994867;28;20015;-76
2022/09/23 04:21:16;;;;;;;30.75;18.25;;;7.60;99.90;;;;;;4994571;28;20032;-76
2022/09/23 04:23:42;;;;;;;31.02;19.50;;;7.70;99.90;;;;;;5008822;28;20030;-76
2022/09/23 04:26:08;;;;;;;27.92;18.58;;;7.70;99.90;;;;;;5013947;28;20473;-76
2022/09/23 04:28:34;;;;;;;27.58;17.83;;;7.80;99.90;;;;;;5014120;28;20464;-76
2022/09/23 04:31:04;;;;;;;28.48;18.08;;;7.90;99.90;;;;;;5014040;28;20495;-76
2022/09/23 04:33:30;;;;;;;27.35;18.02;;;7.90;99.90;;;;;;5013617;28;20050;-77
2022/09/23 04:35:56;;;;;;;31.10;19.10;;;8.00;99.90;;;;;;5013805;28;20121;-76
2022/09/23 04:38:21;;;;;;;27.60;18.30;;;8.10;99.90;;;;;;5013915;28;20026;-77
2022/09/23 04:40:47;;;;;;;27.52;18.42;;;8.00;99.90;;;;;;5013867;28;20033;-77
2022/09/23 04:43:15;;;;;;;28.45;19.30;;;8.00;99.90;;;;;;5013922;28;20033;-77
2022/09/23 04:45:42;;;;;;;27.27;17.67;;;8.10;99.90;;;;;;5013994;28;20014;-77
2022/09/23 04:48:09;;;;;;;27.10;18.38;;;8.20;99.90;;;;;;5014143;28;20026;-77
2022/09/23 04:50:36;;;;;;;29.20;18.23;;;8.10;99.90;;;;;;5013642;28;20353;-76
2022/09/23 04:53:03;;;;;;;26.48;18.00;;;8.20;99.90;;;;;;5013606;28;20030;-76
2022/09/23 04:55:28;;;;;;;30.40;18.73;;;8.10;99.90;;;;;;5013587;28;20103;-76
2022/09/23 04:57:55;;;;;;;29.55;19.15;;;8.20;99.90;;;;;;5013613;28;20049;-76
2022/09/23 05:00:22;;;;;;;28.17;18.50;;;8.10;99.90;;;;;;4993910;28;20131;-78
2022/09/23 05:02:49;;;;;;;29.77;19.05;;;8.20;99.90;;;;;;4994176;28;20457;-78
2022/09/23 05:05:19;;;;;;;32.30;20.58;;;8.30;99.90;;;;;;5006624;28;20033;-78
2022/09/23 05:07:46;;;;;;;27.70;17.95;;;8.30;99.90;;;;;;5013397;28;20656;-79
2022/09/23 05:10:13;;;;;;;34.80;19.58;;;8.30;99.90;;;;;;5013179;28;20029;-78
2022/09/23 05:12:38;;;;;;;30.35;19.27;;;8.30;99.90;;;;;;5013625;28;20018;-78
2022/09/23 05:15:04;;;;;;;29.70;18.80;;;8.30;99.90;;;;;;5013098;28;20030;-78
2022/09/23 05:17:30;;;;;;;24.40;17.52;;;8.30;99.90;;;;;;5012887;28;20026;-78
2022/09/23 05:19:57;;;;;;;32.00;19.27;;;8.30;99.90;;;;;;5012874;28;20026;-78
2022/09/23 05:22:23;;;;;;;33.38;19.83;;;8.40;99.90;;;;;;5013126;28;20064;-78
2022/09/23 05:24:48;;;;;;;26.08;18.60;;;8.40;99.90;;;;;;5020934;28;20535;-78
2022/09/23 05:27:14;;;;;;;31.23;18.80;;;8.50;99.90;;;;;;5030614;28;20034;-78
2022/09/23 05:29:39;;;;;;;31.45;19.63;;;8.50;99.90;;;;;;5032289;28;20452;-78
2022/09/23 05:32:06;;;;;;;29.55;19.10;;;8.60;99.90;;;;;;5031691;28;20515;-78
2022/09/23 05:34:32;;;;;;;27.13;18.73;;;8.70;99.90;;;;;;5032824;28;20361;-78
2022/09/23 05:36:58;;;;;;;30.48;19.33;;;8.60;99.90;;;;;;5015503;28;20033;-78
2022/09/23 05:39:23;;;;;;;27.20;18.13;;;8.70;99.90;;;;;;5012820;28;20029;-76
2022/09/23 05:41:49;;;;;;;26.88;18.63;;;8.70;99.90;;;;;;5012443;28;20030;-76
2022/09/23 05:44:16;;;;;;;31.08;18.88;;;8.80;99.90;;;;;;5012250;28;20026;-76
2022/09/23 05:46:41;;;;;;;28.48;18.17;;;8.80;99.90;;;;;;5012477;28;20092;-76
2022/09/23 05:49:08;;;;;;;26.20;18.65;;;8.90;99.90;;;;;;5012636;28;20029;-76
2022/09/23 05:51:34;;;;;;;29.05;19.15;;;9.00;99.90;;;;;;5012351;28;20071;-76
2022/09/23 05:54:02;;;;;;;29.50;18.48;;;9.10;99.90;;;;;;5011145;28;20473;-76
2022/09/23 05:56:29;;;;;;;26.95;18.65;;;9.20;99.90;;;;;;5016579;28;20028;-76
2022/09/23 05:58:56;;;;;;;25.70;17.05;;;9.20;99.90;;;;;;5032348;28;20056;-76
2022/09/23 06:01:24;;;;;;;28.85;18.95;;;9.30;99.90;;;;;;5032209;28;20656;-77
2022/09/23 06:03:51;;;;;;;29.10;18.63;;;9.40;99.90;;;;;;5032100;28;20101;-76
2022/09/23 06:06:19;;;;;;;27.00;18.55;;;9.50;99.90;;;;;;5025882;28;20469;-76
2022/09/23 06:08:46;;;;;;;26.10;17.30;;;9.60;99.90;;;;;;5012450;28;20026;-76
2022/09/23 06:11:12;;;;;;;27.42;17.98;;;9.70;99.90;;;;;;5012341;28;20056;-76
2022/09/23 06:13:39;;;;;;;27.60;18.35;;;9.80;99.90;;;;;;5012434;28;20101;-76
2022/09/23 06:16:10;;;;;;;28.30;17.35;;;10.00;99.90;;;;;;5012366;28;20021;-77
2022/09/23 06:18:40;;;;;;;29.48;16.77;;;10.00;99.90;;;;;;5012644;28;20045;-76
2022/09/23 06:21:06;;;;;;;26.17;17.48;;;10.10;99.90;;;;;;5010951;28;20036;-76
2022/09/23 06:23:37;;;;;;;26.85;18.27;;;10.20;99.90;;;;;;5012451;28;20034;-78
2022/09/23 06:26:06;;;;;;;26.65;17.63;;;10.30;99.90;;;;;;4992812;28;20037;-78
2022/09/23 06:28:34;;;;;;;24.48;16.75;;;10.40;99.90;;;;;;4992835;28;20034;-78
2022/09/23 06:31:12;;;;;;;25.83;16.65;;;10.50;99.90;;;;;;5001382;28;20034;-79
2022/09/23 06:33:38;;;;;;;26.27;17.20;;;10.60;99.90;;;;;;5012060;28;20074;-77
2022/09/23 06:36:06;;;;;;;25.05;16.65;;;10.80;99.90;;;;;;5011106;28;20112;-77
2022/09/23 06:38:35;;;;;;;25.73;16.90;;;10.90;99.90;;;;;;5012682;28;20026;-77
2022/09/23 06:41:06;;;;;;;26.70;16.95;;;11.10;99.90;;;;;;5016074;28;20030;-76
2022/09/23 06:43:32;;;;;;;24.17;16.90;;;11.40;99.90;;;;;;5016258;28;20026;-76
2022/09/23 06:46:00;;;;;;;25.58;16.75;;;11.60;99.90;;;;;;5016311;28;20018;-77
2022/09/23 06:48:27;;;;;;;26.10;17.45;;;11.80;99.90;;;;;;5016353;28;20148;-76
2022/09/23 06:50:58;;;;;;;23.35;16.65;;;11.90;99.90;;;;;;5027794;28;20051;-76
2022/09/23 06:53:24;;;;;;;27.92;17.80;;;12.20;99.90;;;;;;5035902;28;20060;-77
2022/09/23 06:56:04;;;;;;;25.23;15.77;;;11.90;99.90;;;;;;5035784;28;20053;-76
2022/09/23 06:58:31;;;;;;;22.58;16.02;;;12.10;99.90;;;;;;5035491;28;20022;-77
2022/09/23 07:01:02;;;;;;;24.35;16.35;;;12.20;99.90;;;;;;5033370;28;20025;-77
2022/09/23 07:03:28;;;;;;;27.60;16.88;;;12.20;99.90;;;;;;5015578;28;20030;-77
2022/09/23 07:05:55;;;;;;;23.42;15.80;;;12.20;99.90;;;;;;5015259;28;20093;-76
2022/09/23 07:08:21;;;;;;;24.70;16.67;;;12.20;99.90;;;;;;5015521;28;20105;-76
2022/09/23 07:10:51;;;;;;;20.73;15.82;;;12.30;99.90;;;;;;5015547;28;20022;-77
2022/09/23 07:13:17;;;;;;;23.83;15.90;;;12.20;99.90;;;;;;5015463;28;20018;-76
2022/09/23 07:15:52;;;;;;;25.00;15.57;;;12.30;99.90;;;;;;5015739;28;20036;-76
2022/09/23 07:18:19;;;;;;;23.65;15.32;;;12.30;99.90;;;;;;5016242;28;20073;-77
2022/09/23 07:20:47;;;;;;;19.77;15.05;;;12.50;99.90;;;;;;5015621;28;20044;-77
2022/09/23 07:23:13;;;;;;;20.23;14.55;;;12.50;99.90;;;;;;5015550;28;20018;-77
2022/09/23 07:25:39;;;;;;;21.45;14.65;;;12.70;99.90;;;;;;5015169;28;20022;-77
2022/09/23 07:28:05;;;;;;;20.55;14.93;;;12.90;99.90;;;;;;5015259;28;20026;-77
2022/09/23 07:30:34;;;;;;;21.90;15.35;;;13.10;99.90;;;;;;5015364;28;20036;-77
2022/09/23 07:33:00;;;;;;;21.77;15.98;;;13.30;99.90;;;;;;5015039;28;20404;-77
2022/09/23 07:35:26;;;;;;;20.60;15.70;;;13.40;99.90;;;;;;5015372;28;20457;-77
2022/09/23 07:37:52;;;;;;;19.40;14.15;;;13.70;99.90;;;;;;5015191;28;20080;-77
2022/09/23 07:40:18;;;;;;;25.77;15.75;;;13.90;99.90;;;;;;5005256;28;20030;-77
2022/09/23 07:42:44;;;;;;;19.60;14.82;;;14.30;98.80;;;;;;4995549;28;20049;-77
2022/09/23 07:45:09;;;;;;;19.25;14.32;;;14.50;96.60;;;;;;4995387;28;20054;-77
2022/09/23 07:47:38;;;;;;;20.30;14.27;;;14.70;89.70;;;;;;5012495;28;20053;-77
2022/09/23 07:50:04;;;;;;;19.63;14.43;;;14.70;87.10;;;;;;5013369;28;20104;-77
2022/09/23 07:52:29;;;;;;;21.15;14.88;;;14.90;84.60;;;;;;5013189;28;20061;-77
2022/09/23 07:54:55;;;;;;;17.58;14.32;;;15.20;86.60;;;;;;5025954;28;20060;-77
2022/09/23 07:57:21;;;;;;;17.52;13.65;;;15.30;78.10;;;;;;5014369;28;20436;-78
2022/09/23 07:59:46;;;;;;;17.52;12.85;;;15.20;74.70;;;;;;5014402;28;20110;-79
2022/09/23 08:02:13;;;;;;;20.63;13.73;;;15.40;72.30;;;;;;5014924;28;20087;-78
2022/09/23 08:04:39;;;;;;;18.77;12.88;;;15.20;79.20;;;;;;5015561;28;20680;-77
2022/09/23 08:07:05;;;;;;;16.58;13.13;;;14.90;83.20;;;;;;5015391;28;20369;-78
2022/09/23 08:09:40;;;;;;;18.65;12.80;;;14.80;90.10;;;;;;5015281;28;20026;-78
2022/09/23 08:12:12;;;;;;;19.25;13.63;;;14.90;85.10;;;;;;5015291;28;20026;-78
2022/09/23 08:14:37;;;;;;;16.48;12.02;;;15.10;77.30;;;;;;5015293;28;20381;-78
2022/09/23 08:17:04;;;;;;;16.98;12.77;;;15.10;77.20;;;;;;5014980;28;20461;-78
2022/09/23 08:19:30;;;;;;;16.48;12.57;;;15.00;81.30;;;;;;5014841;28;20030;-78
2022/09/23 08:21:56;;;;;;;18.58;13.65;;;14.90;84.90;;;;;;5014887;28;20034;-78
2022/09/23 08:24:23;;;;;;;17.25;13.25;;;15.00;87.90;;;;;;5014875;28;20346;-77
2022/09/23 08:26:52;;;;;;;19.55;14.35;;;14.90;93.80;;;;;;5014593;28;20014;-77
2022/09/23 08:29:19;;;;;;;15.63;12.38;;;15.10;94.30;;;;;;5014661;28;20018;-76
2022/09/23 08:31:45;;;;;;;17.08;12.95;;;15.10;95.00;;;;;;5014298;28;20037;-77
2022/09/23 08:34:12;;;;;;;17.55;13.07;;;15.20;96.10;;;;;;5014179;28;20045;-77
2022/09/23 08:36:38;;;;;;;19.67;14.43;;;15.40;95.80;;;;;;5014067;28;20101;-76
2022/09/23 08:39:05;;;;;;;19.02;12.73;;;15.30;99.90;;;;;;5014105;28;20368;-76
2022/09/23 08:42:02;;;;;;;17.83;12.90;;;15.70;99.90;;;;;;5014161;28;20472;-77
2022/09/23 08:44:52;;;;;;;15.65;12.55;;;15.80;94.80;;;;;;4999027;28;20022;-76
2022/09/23 08:47:26;;;;;;;20.55;13.77;;;16.10;89.40;;;;;;5015040;28;20029;-77
2022/09/23 08:50:05;;;;;;;18.25;13.15;;;16.30;83.80;;;;;;5006818;28;20612;-77
2022/09/23 08:53:00;;;;;;;18.30;13.10;;;16.20;85.10;;;;;;4994860;28;20026;-77
2022/09/23 08:55:34;;;;;;;18.95;12.75;;;16.50;88.90;;;;;;4985633;28;20100;-77
2022/09/23 08:58:03;;;;;;;16.10;11.50;;;16.40;72.30;;;;;;4994522;28;20040;-77
2022/09/23 09:00:40;;;;;;;17.80;12.50;;;16.60;76.80;;;;;;4994475;28;20054;-76
2022/09/23 09:03:23;;;;;;;16.90;13.52;;;16.50;77.70;;;;;;5006437;28;20477;-78
2022/09/23 09:05:52;;;;;;;16.02;12.45;;;16.60;79.60;;;;;;5017676;28;20065;-77
2022/09/23 09:08:23;;;;;;;16.92;12.80;;;16.50;77.10;;;;;;5014266;28;20049;-77
2022/09/23 09:10:57;;;;;;;15.88;11.18;;;16.60;89.50;;;;;;5014239;28;20107;-78
2022/09/23 09:13:29;;;;;;;18.52;12.88;;;16.70;82.10;;;;;;5014292;28;20026;-79
2022/09/23 09:16:43;;;;;;;21.63;12.82;;;17.00;77.00;;;;;;5013949;28;20021;-79
2022/09/23 09:19:17;;;;;;;18.58;12.27;;;16.80;79.40;;;;;;4968576;28;20639;-78
2022/09/23 09:21:46;;;;;;;15.48;12.50;;;16.90;69.50;;;;;;5013949;28;20033;-79
2022/09/23 09:24:30;;;;;;;17.42;12.57;;;16.80;80.30;;;;;;5013397;28;20491;-78
2022/09/23 09:26:56;;;;;;;15.60;11.98;;;17.00;72.60;;;;;;5005189;28;20023;-79
2022/09/23 09:29:30;;;;;;;14.63;12.55;;;17.10;67.00;;;;;;4993759;28;20026;-79
2022/09/23 09:31:56;;;;;;;17.58;13.00;;;17.10;71.70;;;;;;4993560;28;20461;-78
2022/09/23 09:34:42;;;;;;;17.48;12.40;;;17.10;95.30;;;;;;4994256;28;20084;-79
2022/09/23 09:37:31;;;;;;;17.63;12.88;;;17.30;89.60;;;;;;4994121;28;20109;-79
2022/09/23 09:39:59;;;;;;;16.95;12.70;;;17.30;92.00;;;;;;5008539;28;20481;-79
2022/09/23 09:42:36;;;;;;;20.23;14.00;;;17.30;83.80;;;;;;5013169;28;20095;-78
2022/09/23 09:45:09;;;;;;;19.10;13.48;;;17.40;86.70;;;;;;5013292;28;20087;-78
2022/09/23 09:47:59;;;;;;;19.40;13.18;;;17.10;82.90;;;;;;5013681;28;20080;-80
2022/09/23 09:50:52;;;;;;;19.05;15.18;;;17.00;92.10;;;;;;5014225;28;20053;-80
2022/09/23 09:53:25;;;;;;;19.38;12.85;;;17.20;97.60;;;;;;5010537;28;20037;-79
2022/09/23 09:56:04;;;;;;;18.77;14.18;;;17.20;93.20;;;;;;5013604;28;20025;-79
2022/09/23 09:58:42;;;;;;;17.92;13.95;;;17.40;90.90;;;;;;5013366;28;20037;-79
2022/09/23 10:01:27;;;;;;;19.65;14.82;;;17.40;86.20;;;;;;5012747;28;20057;-76
2022/09/23 10:03:55;;;;;;;18.30;14.15;;;17.40;93.80;;;;;;5023667;28;20029;-76
2022/09/23 10:06:24;;;;;;;20.17;15.25;;;17.20;94.60;;;;;;5013782;28;20022;-76
2022/09/23 10:09:14;;;;;;;19.77;14.50;;;17.20;99.90;;;;;;5012699;28;20400;-76
2022/09/23 10:11:41;;;;;;;17.17;14.45;;;17.00;99.90;;;;;;5012819;28;20465;-77
2022/09/23 10:14:16;;;;;;;19.50;15.60;;;17.20;99.90;;;;;;5013849;28;20026;-76
2022/09/23 10:16:43;;;;;;;21.70;16.10;;;17.00;99.90;;;;;;5026760;28;20443;-77
2022/09/23 10:19:28;;;;;;;20.10;15.07;;;17.00;99.90;;;;;;5036577;28;20026;-77
2022/09/23 10:21:59;;;;;;;21.30;16.52;;;17.00;99.90;;;;;;5035962;28;20029;-76
2022/09/23 10:24:29;;;;;;;23.75;18.40;;;16.90;99.90;;;;;;5029653;28;20044;-76
2022/09/23 10:27:00;;;;;;;21.70;16.65;;;17.20;99.90;;;;;;5016206;28;20029;-77
2022/09/23 10:29:38;;;;;;;23.63;16.85;;;17.10;99.90;;;;;;5016259;28;20043;-76
2022/09/23 10:32:19;;;;;;;20.65;16.83;;;17.10;99.90;;;;;;5014953;28;20036;-76
2022/09/23 10:34:47;;;;;;;22.73;17.45;;;17.20;99.90;;;;;;5016456;28;20018;-76
2022/09/23 10:37:33;;;;;;;20.60;16.45;;;17.10;99.90;;;;;;5016631;28;20380;-76
2022/09/23 10:48:36;;;;;;;19.55;16.02;;;17.10;99.90;;;;;;5016491;28;19912;-77
2022/09/23 10:51:19;;;;;;;21.23;17.23;;;17.20;99.90;;;;;;5016063;28;20412;-76
2022/09/23 10:54:11;;;;;;;22.60;16.13;;;17.70;99.90;;;;;;5015865;28;20044;-77
2022/09/23 10:56:47;;;;;;;23.55;17.48;;;17.50;99.90;;;;;;5015831;28;20346;-79
2022/09/23 10:59:32;;;;;;;21.60;16.80;;;17.70;99.90;;;;;;5016282;28;20052;-77
2022/09/23 11:02:09;;;;;;;22.20;17.73;;;17.80;99.90;;;;;;5015530;28;20042;-77
2022/09/23 11:05:08;;;;;;;20.98;17.10;;;18.00;99.90;;;;;;5015730;28;20018;-77
2022/09/23 11:07:50;;;;;;;22.95;18.30;;;17.90;99.90;;;;;;5015910;28;20022;-78
2022/09/23 11:10:24;;;;;;;22.33;18.42;;;18.10;99.90;;;;;;5015861;28;20076;-78
2022/09/23 11:13:09;;;;;;;26.98;19.30;;;18.00;99.90;;;;;;5015579;28;20026;-78
2022/09/23 11:15:51;;;;;;;23.65;18.63;;;18.00;99.90;;;;;;5015853;28;20024;-78
2022/09/23 11:18:39;;;;;;;26.65;20.20;;;17.80;99.90;;;;;;5015606;28;20449;-78
2022/09/23 11:21:50;;;;;;;38.60;25.85;;;17.60;99.90;;;;;;5015740;28;20109;-78
2022/09/23 11:24:49;;;;;;;29.30;20.83;;;17.60;99.90;;;;;;4972250;28;20030;-78
2022/09/23 11:27:39;;;;;;;22.73;18.60;;;17.50;99.90;;;;;;5015055;28;20100;-78
2022/09/23 11:30:18;;;;;;;20.67;17.20;;;17.40;99.90;;;;;;5014133;28;20476;-77
2022/09/23 11:33:12;;;;;;;27.50;20.20;;;17.40;99.90;;;;;;5014980;28;20050;-77
2022/09/23 11:35:52;;;;;;;25.05;18.92;;;17.50;99.90;;;;;;5021441;28;20017;-77
2022/09/23 11:38:17;;;;;;;26.87;19.27;;;17.60;99.90;;;;;;5008699;28;20030;-78
2022/09/23 11:40:53;;;;;;;24.35;19.55;;;17.70;99.90;;;;;;5016121;28;20396;-81
2022/09/23 11:43:24;;;;;;;24.92;19.02;;;17.70;99.90;;;;;;5014751;28;20033;-80
2022/09/23 11:45:59;;;;;;;25.92;19.08;;;17.60;99.90;;;;;;5015916;28;20053;-81
2022/09/23 11:48:41;;;;;;;22.52;19.17;;;17.80;99.90;;;;;;5016060;28;20048;-81
2022/09/23 11:51:15;;;;;;;24.33;18.92;;;17.90;99.90;;;;;;5016179;28;20084;-80
2022/09/23 11:54:14;;;;;;;22.80;18.45;;;18.10;99.90;;;;;;5009234;28;20038;-81
2022/09/23 11:56:47;;;;;;;22.70;18.65;;;18.10;99.90;;;;;;4989562;28;20113;-80
2022/09/23 11:59:46;;;;;;;23.52;19.15;;;18.20;99.90;;;;;;5015535;28;20037;-79
2022/09/23 12:02:29;;;;;;;25.25;18.83;;;18.30;99.90;;;;;;5019798;28;20662;-79
2022/09/23 12:05:07;;;;;;;22.52;18.45;;;18.00;99.90;;;;;;4995908;28;20096;-79
2022/09/23 12:07:58;;;;;;;21.00;18.13;;;17.90;99.90;;;;;;5002194;28;20108;-79
2022/09/23 12:10:35;;;;;;;22.92;18.33;;;17.80;99.90;;;;;;5015595;28;20014;-81
2022/09/23 12:13:15;;;;;;;25.77;19.55;;;18.00;99.90;;;;;;5004225;28;20026;-81
2022/09/23 12:15:59;;;;;;;23.20;17.85;;;17.70;99.90;;;;;;5016179;28;20018;-81
2022/09/23 12:18:42;;;;;;;26.08;19.80;;;17.60;99.90;;;;;;4995945;28;20102;-81
2022/09/23 12:22:01;;;;;;;35.85;24.27;;;17.40;99.90;;;;;;4995780;28;20366;-81
2022/09/23 12:24:53;;;;;;;37.10;23.42;;;17.50;99.90;;;;;;4970084;28;20026;-82
2022/09/23 12:27:44;;;;;;;34.83;23.17;;;17.70;99.90;;;;;;4974125;28;20039;-81
2022/09/23 12:30:25;;;;;;;29.33;21.67;;;17.80;99.90;;;;;;5007818;28;20030;-81
2022/09/23 12:32:53;;;;;;;32.40;23.88;;;18.10;99.90;;;;;;5008696;28;20046;-81
2022/09/23 12:35:21;;;;;;;33.90;24.50;;;18.10;99.90;;;;;;5011751;28;20033;-81
2022/09/23 12:37:48;;;;;;;36.10;24.40;;;18.00;99.90;;;;;;5006812;28;20080;-81
2022/09/23 12:40:21;;;;;;;38.42;27.67;;;18.10;99.90;;;;;;5014892;28;20041;-82
2022/09/23 12:42:48;;;;;;;31.70;23.55;;;17.90;99.90;;;;;;5014792;28;20205;-81
2022/09/23 12:45:30;;;;;;;32.60;23.42;;;17.90;99.90;;;;;;5013662;28;20022;-81
2022/09/23 12:47:58;;;;;;;31.35;23.38;;;18.20;99.90;;;;;;4998392;28;20023;-83
2022/09/23 12:50:46;;;;;;;24.83;20.55;;;18.20;99.90;;;;;;4995811;28;20026;-82
2022/09/23 12:56:41;;;;;;;24.52;19.98;;;18.40;99.90;;;;;;5011253;28;20033;-80
2022/09/23 12:59:27;;;;;;;24.13;19.88;;;18.40;99.90;;;;;;5001029;28;20026;-80
2022/09/23 13:01:53;;;;;;;23.65;18.73;;;18.20;99.90;;;;;;5002643;28;20042;-80
2022/09/23 13:07:30;;;;;;;23.17;18.88;;;18.00;99.90;;;;;;5008311;28;20405;-80
2022/09/23 13:10:07;;;;;;;24.98;18.52;;;18.10;99.90;;;;;;5014282;28;20018;-79
2022/09/23 13:12:38;;;;;;;23.40;19.10;;;17.90;99.90;;;;;;5006118;28;20354;-80
2022/09/23 13:15:12;;;;;;;21.77;18.23;;;17.90;99.90;;;;;;5014014;28;20037;-80
2022/09/23 13:17:39;;;;;;;24.38;19.15;;;18.10;99.90;;;;;;5014324;28;20456;-80
2022/09/23 13:20:20;;;;;;;25.20;18.48;;;18.30;99.90;;;;;;5014059;28;20022;-79